Time;durP1;ratioP1;P1;durP2;ratioP2;P2;SDS_P1;SDS_P2;PMS_P1;PMS_P2;Temp;Humidity;BMP_temperature;BMP_pressure;BME280_temperature;BME280_humidity;BME280_pressure;Samples;Min_cycle;Max_cycle;Signal;HPM_P1;HPM_P2
2021/07/25 00:00:18;;;;;;;1999.90;999.90;;;19.90;99.90;;;;;;5006772;23;20246;-84
2021/07/25 00:02:43;;;;;;;1999.90;999.90;;;19.90;99.90;;;;;;4877297;29;20471;-86
2021/07/25 00:05:09;;;;;;;1999.90;999.90;;;19.90;99.90;;;;;;4863015;29;20171;-87
2021/07/25 00:07:36;;;;;;;1999.90;999.90;;;19.80;99.90;;;;;;4864037;29;20677;-85
2021/07/25 00:10:05;;;;;;;1999.90;999.90;;;19.80;99.90;;;;;;4872201;29;20414;-88
2021/07/25 00:12:31;;;;;;;1999.90;999.90;;;19.80;99.90;;;;;;4870605;29;20453;-88
2021/07/25 00:14:57;;;;;;;1999.90;999.90;;;19.90;99.90;;;;;;4871074;29;20862;-88
2021/07/25 00:17:22;;;;;;;1999.90;999.90;;;19.80;99.90;;;;;;4870122;29;20217;-88
2021/07/25 00:19:49;;;;;;;1999.90;999.90;;;19.80;99.90;;;;;;4870693;29;20417;-85
2021/07/25 00:22:14;;;;;;;1999.90;999.90;;;19.80;99.90;;;;;;4871455;29;20207;-86
2021/07/25 00:24:48;;;;;;;1999.90;999.90;;;19.80;99.90;;;;;;4869530;29;20425;-88
2021/07/25 00:27:14;;;;;;;1999.90;999.90;;;19.80;99.90;;;;;;4869483;29;20668;-86
2021/07/25 00:29:40;;;;;;;1999.90;999.90;;;19.80;99.90;;;;;;4869922;29;20443;-88
2021/07/25 00:32:08;;;;;;;1999.90;999.90;;;19.80;99.90;;;;;;4871253;29;20174;-88
2021/07/25 00:34:34;;;;;;;1999.90;999.90;;;19.80;99.90;;;;;;4869283;29;20207;-87
2021/07/25 00:37:00;;;;;;;1999.90;999.90;;;19.80;99.90;;;;;;4869774;29;20441;-87
2021/07/25 00:39:26;;;;;;;1999.90;999.90;;;19.80;99.90;;;;;;4870411;29;20412;-88
2021/07/25 00:41:53;;;;;;;1999.90;999.90;;;19.80;99.90;;;;;;4870453;29;20491;-86
2021/07/25 00:44:19;;;;;;;1999.90;999.90;;;19.80;99.90;;;;;;4869903;29;20451;-87
2021/07/25 00:46:46;;;;;;;1999.90;999.90;;;19.80;99.90;;;;;;4868918;29;20440;-86
2021/07/25 00:49:13;;;;;;;1999.90;999.90;;;19.80;99.90;;;;;;4865428;29;20412;-87
2021/07/25 00:51:39;;;;;;;1999.90;999.90;;;19.80;99.90;;;;;;4863161;29;20419;-87
2021/07/25 00:54:05;;;;;;;1999.90;999.90;;;19.80;99.90;;;;;;4864478;29;20404;-88
2021/07/25 00:56:30;;;;;;;1999.90;999.90;;;19.80;99.90;;;;;;4864569;29;20520;-87
2021/07/25 00:58:56;;;;;;;1999.90;999.90;;;19.80;99.90;;;;;;4864817;29;20179;-86
2021/07/25 01:01:22;;;;;;;1999.90;999.90;;;19.80;99.90;;;;;;4867468;29;20186;-87
2021/07/25 01:04:10;;;;;;;1999.90;999.90;;;19.80;99.90;;;;;;4868064;29;20250;-87
2021/07/25 01:06:51;;;;;;;1999.90;999.90;;;19.80;99.90;;;;;;4876572;29;20454;-86
2021/07/25 01:09:27;;;;;;;1999.90;999.90;;;19.80;99.90;;;;;;4861753;29;20388;-87
2021/07/25 01:11:56;;;;;;;1999.90;999.90;;;19.80;99.90;;;;;;4862297;29;21084;-86
2021/07/25 01:14:29;;;;;;;1999.90;999.90;;;19.90;99.90;;;;;;4860788;29;20417;-86
2021/07/25 01:17:23;;;;;;;1999.90;999.90;;;19.80;99.90;;;;;;4860759;29;20437;-86
2021/07/25 01:19:49;;;;;;;1999.90;999.90;;;19.80;99.90;;;;;;4862012;29;20404;-87
2021/07/25 01:22:16;;;;;;;1999.90;999.90;;;19.80;99.90;;;;;;4864759;29;21024;-87
2021/07/25 01:24:42;;;;;;;1999.90;999.90;;;19.80;99.90;;;;;;4862741;29;20774;-86
2021/07/25 01:27:54;;;;;;;1999.90;999.90;;;19.80;99.90;;;;;;4862019;29;20436;-86
2021/07/25 01:30:44;;;;;;;1999.90;999.90;;;19.80;99.90;;;;;;4826461;29;20566;-86
2021/07/25 01:33:12;;;;;;;1999.90;999.90;;;19.80;99.90;;;;;;4828557;29;20793;-87
2021/07/25 01:35:40;;;;;;;1999.90;999.90;;;19.70;99.90;;;;;;4855602;29;20448;-86
2021/07/25 01:38:09;;;;;;;1999.90;999.90;;;19.60;99.90;;;;;;4861360;29;20439;-86
2021/07/25 01:40:35;;;;;;;1999.90;999.90;;;19.50;99.90;;;;;;4863123;29;20412;-87
2021/07/25 01:43:05;;;;;;;1999.90;999.90;;;19.50;99.90;;;;;;4863287;29;20516;-87
2021/07/25 01:45:35;;;;;;;1999.90;999.90;;;19.40;99.90;;;;;;4861793;29;20411;-87
2021/07/25 01:48:02;;;;;;;1999.90;999.90;;;19.40;99.90;;;;;;4876776;29;20421;-87
2021/07/25 01:50:27;;;;;;;1999.90;999.90;;;19.40;99.90;;;;;;4864108;29;20420;-88
2021/07/25 01:52:53;;;;;;;1999.90;999.90;;;19.40;99.90;;;;;;4869480;29;20409;-88
2021/07/25 01:55:18;;;;;;;1999.90;999.90;;;19.40;99.90;;;;;;4867768;29;20200;-86
2021/07/25 01:57:44;;;;;;;1999.90;999.90;;;19.50;99.90;;;;;;4872023;29;20173;-87
2021/07/25 02:00:30;;;;;;;1999.90;999.90;;;19.50;99.90;;;;;;4872609;29;20195;-87
2021/07/25 02:02:59;;;;;;;1999.90;999.90;;;19.50;99.90;;;;;;4872335;29;20210;-87
2021/07/25 02:05:24;;;;;;;1999.90;999.90;;;19.50;99.90;;;;;;4870843;29;20506;-88
2021/07/25 02:07:50;;;;;;;1999.90;999.90;;;19.50;99.90;;;;;;4872169;29;20432;-88
2021/07/25 02:10:16;;;;;;;1999.90;999.90;;;19.50;99.90;;;;;;4872978;29;20169;-88
2021/07/25 02:12:42;;;;;;;1999.90;999.90;;;19.50;99.90;;;;;;4872936;29;20173;-87
2021/07/25 02:15:08;;;;;;;1999.90;999.90;;;19.40;99.90;;;;;;4872382;29;20182;-87
2021/07/25 02:17:34;;;;;;;1999.90;999.90;;;19.40;99.90;;;;;;4872204;29;20191;-87
2021/07/25 02:19:59;;;;;;;1999.90;999.90;;;19.40;99.90;;;;;;4871265;29;20420;-87
2021/07/25 02:22:25;;;;;;;1999.90;999.90;;;19.30;99.90;;;;;;4872586;29;20501;-87
2021/07/25 02:24:51;;;;;;;1999.90;999.90;;;19.30;99.90;;;;;;4871204;29;20185;-87
2021/07/25 02:27:16;;;;;;;1999.90;999.90;;;19.30;99.90;;;;;;4871038;29;20603;-87
2021/07/25 02:29:42;;;;;;;1999.90;999.90;;;19.20;99.90;;;;;;4884137;29;20176;-87
2021/07/25 02:32:08;;;;;;;1999.90;999.90;;;19.30;99.90;;;;;;4869069;29;20182;-87
2021/07/25 02:34:34;;;;;;;1999.90;999.90;;;19.20;99.90;;;;;;4870826;29;20180;-87
2021/07/25 02:37:00;;;;;;;1999.90;999.90;;;19.20;99.90;;;;;;4868690;29;20255;-87
2021/07/25 02:39:26;;;;;;;1999.90;999.90;;;19.20;99.90;;;;;;4870275;29;20419;-87
2021/07/25 02:41:52;;;;;;;1999.90;999.90;;;19.10;99.90;;;;;;4960796;23;20255;-87
2021/07/25 02:44:18;;;;;;;1999.90;999.90;;;19.10;99.90;;;;;;4884200;29;20834;-86
2021/07/25 02:46:43;;;;;;;1999.90;999.90;;;19.00;99.90;;;;;;4882879;29;20247;-86
2021/07/25 02:49:09;;;;;;;1999.90;999.90;;;19.00;99.90;;;;;;4885626;29;20175;-86
2021/07/25 02:51:35;;;;;;;1999.90;999.90;;;19.00;99.90;;;;;;4890348;29;20664;-86
2021/07/25 02:54:00;;;;;;;1999.90;999.90;;;19.10;99.90;;;;;;4888688;29;20168;-87
2021/07/25 02:56:26;;;;;;;1999.90;999.90;;;19.10;99.90;;;;;;4889986;29;20296;-87
2021/07/25 02:58:52;;;;;;;1999.90;999.90;;;19.10;99.90;;;;;;4890404;29;20171;-87
2021/07/25 03:01:18;;;;;;;1999.90;999.90;;;19.10;99.90;;;;;;4890482;29;20461;-87
2021/07/25 03:03:44;;;;;;;1999.90;999.90;;;19.10;99.90;;;;;;4890031;29;20226;-87
2021/07/25 03:06:10;;;;;;;1999.90;999.90;;;19.10;99.90;;;;;;4888358;29;20191;-86
2021/07/25 03:08:36;;;;;;;1999.90;999.90;;;19.00;99.90;;;;;;4902161;29;20424;-87
2021/07/25 03:11:06;;;;;;;1999.90;999.90;;;19.00;99.90;;;;;;4889265;29;20167;-86
2021/07/25 03:13:32;;;;;;;1999.90;999.90;;;19.00;99.90;;;;;;4902711;29;20915;-87
2021/07/25 03:16:04;;;;;;;1999.90;999.90;;;19.00;99.90;;;;;;4891894;29;20464;-87
2021/07/25 03:18:31;;;;;;;1999.90;999.90;;;19.00;99.90;;;;;;4892442;29;20179;-87
2021/07/25 03:20:57;;;;;;;1999.90;999.90;;;18.90;99.90;;;;;;4890724;29;20423;-87
2021/07/25 03:23:23;;;;;;;1999.90;999.90;;;18.90;99.90;;;;;;4951212;23;20566;-86
2021/07/25 03:25:49;;;;;;;1999.90;999.90;;;18.90;99.90;;;;;;4881440;29;20424;-87
2021/07/25 03:28:14;;;;;;;1999.90;999.90;;;18.80;99.90;;;;;;4881558;29;20825;-87
2021/07/25 03:30:40;;;;;;;1999.90;999.90;;;18.80;99.90;;;;;;4895644;29;20542;-87
2021/07/25 03:33:07;;;;;;;1999.90;999.90;;;18.80;99.90;;;;;;4896472;29;20507;-87
2021/07/25 03:35:35;;;;;;;1999.90;999.90;;;18.80;99.90;;;;;;4879765;29;20470;-87
2021/07/25 03:38:01;;;;;;;1999.90;999.90;;;18.80;99.90;;;;;;4881473;29;20414;-87
2021/07/25 03:40:29;;;;;;;1999.90;999.90;;;18.70;99.90;;;;;;4881388;29;20549;-87
2021/07/25 03:42:56;;;;;;;1999.90;999.90;;;18.70;99.90;;;;;;4895133;29;21029;-87
2021/07/25 03:45:22;;;;;;;1999.90;999.90;;;18.70;99.90;;;;;;4880918;29;20416;-87
2021/07/25 03:47:48;;;;;;;1999.90;999.90;;;18.70;99.90;;;;;;4895247;29;20419;-87
2021/07/25 03:50:23;;;;;;;1999.90;999.90;;;18.70;99.90;;;;;;4881244;29;20430;-87
2021/07/25 03:52:49;;;;;;;1999.90;999.90;;;18.60;99.90;;;;;;4881507;29;20511;-87
2021/07/25 03:55:20;;;;;;;1999.90;999.90;;;18.60;99.90;;;;;;4880735;29;20411;-87
2021/07/25 03:57:46;;;;;;;1999.90;999.90;;;18.60;99.90;;;;;;4880176;29;20917;-87
2021/07/25 04:00:12;;;;;;;1999.90;999.90;;;18.60;99.90;;;;;;4895188;29;20415;-87
2021/07/25 04:02:38;;;;;;;1999.90;999.90;;;18.60;99.90;;;;;;4880772;29;21053;-87
2021/07/25 04:05:04;;;;;;;1999.90;999.90;;;18.60;99.90;;;;;;4880890;29;20412;-87
2021/07/25 04:07:32;;;;;;;1999.90;999.90;;;18.60;99.90;;;;;;4880682;29;20187;-87
2021/07/25 04:10:01;;;;;;;1999.90;999.90;;;18.60;99.90;;;;;;4880765;29;20404;-87
2021/07/25 04:12:32;;;;;;;1999.90;999.90;;;18.60;99.90;;;;;;4880890;29;20411;-87
2021/07/25 04:15:02;;;;;;;1999.90;999.90;;;18.60;99.90;;;;;;4881005;29;20400;-87
2021/07/25 04:17:35;;;;;;;1999.90;999.90;;;18.60;99.90;;;;;;4879407;29;20834;-87
2021/07/25 04:20:07;;;;;;;1999.90;999.90;;;18.60;99.90;;;;;;4880371;29;20421;-87
2021/07/25 04:22:36;;;;;;;1999.90;999.90;;;18.50;99.90;;;;;;4880422;29;20950;-88
2021/07/25 04:25:03;;;;;;;1999.90;999.90;;;18.50;99.90;;;;;;4880468;29;20783;-87
2021/07/25 04:27:29;;;;;;;1999.90;999.90;;;18.50;99.90;;;;;;4894578;29;20470;-87
2021/07/25 04:29:56;;;;;;;1999.90;999.90;;;18.50;99.90;;;;;;4894746;29;20505;-87
2021/07/25 04:32:23;;;;;;;1999.90;999.90;;;18.50;99.90;;;;;;4880262;29;20411;-87
2021/07/25 04:34:52;;;;;;;1999.90;999.90;;;18.40;99.90;;;;;;4878949;29;20519;-87
2021/07/25 04:37:31;;;;;;;1999.90;999.90;;;18.40;99.90;;;;;;4895194;29;20494;-87
2021/07/25 04:39:57;;;;;;;1999.90;999.90;;;18.40;99.90;;;;;;4895241;29;20919;-87
2021/07/25 04:42:29;;;;;;;1999.90;999.90;;;18.40;99.90;;;;;;4880406;29;20482;-87
2021/07/25 04:45:05;;;;;;;1999.90;999.90;;;18.40;99.90;;;;;;4880649;29;20391;-88
2021/07/25 04:47:47;;;;;;;1999.90;999.90;;;18.50;99.90;;;;;;4880531;29;20431;-87
2021/07/25 04:50:17;;;;;;;1999.90;999.90;;;18.50;99.90;;;;;;4880392;29;20388;-87
2021/07/25 04:52:51;;;;;;;1999.90;999.90;;;18.60;99.90;;;;;;4880102;29;20418;-87
2021/07/25 04:55:25;;;;;;;1999.90;999.90;;;18.70;99.90;;;;;;4895033;29;20505;-87
2021/07/25 04:58:02;;;;;;;1999.90;999.90;;;18.80;99.90;;;;;;4880091;29;20387;-87
2021/07/25 05:00:30;;;;;;;1999.90;999.90;;;18.90;99.90;;;;;;4880374;29;20750;-87
2021/07/25 05:03:02;;;;;;;1999.90;999.90;;;19.00;99.90;;;;;;4879748;29;20525;-88
2021/07/25 05:05:28;;;;;;;1999.90;999.90;;;19.10;99.90;;;;;;4879068;29;20508;-88
2021/07/25 05:08:04;;;;;;;1999.90;999.90;;;19.10;99.90;;;;;;4878863;29;20430;-88
2021/07/25 05:10:36;;;;;;;1999.90;999.90;;;19.10;99.90;;;;;;4879969;29;20398;-88
2021/07/25 05:13:08;;;;;;;1999.90;999.90;;;19.10;99.90;;;;;;4878485;29;20490;-88
2021/07/25 05:15:40;;;;;;;1999.90;999.90;;;19.20;99.90;;;;;;4878533;29;20435;-88
2021/07/25 05:18:28;;;;;;;1999.90;999.90;;;19.20;99.90;;;;;;4880015;29;20755;-87
2021/07/25 05:21:17;;;;;;;1999.90;999.90;;;19.30;99.90;;;;;;4878749;29;20415;-88
2021/07/25 05:23:44;;;;;;;1999.90;999.90;;;19.10;99.90;;;;;;4876659;29;20491;-87
2021/07/25 05:26:12;;;;;;;1999.90;999.90;;;19.20;99.90;;;;;;4894467;29;20496;-88
2021/07/25 05:28:39;;;;;;;1999.90;999.90;;;19.20;99.90;;;;;;4880049;29;20452;-88
2021/07/25 05:31:09;;;;;;;1999.90;999.90;;;19.10;99.90;;;;;;4881643;29;20427;-88
2021/07/25 05:33:35;;;;;;;1999.90;999.90;;;19.20;99.90;;;;;;4883879;29;20426;-88
2021/07/25 05:36:01;;;;;;;1999.90;999.90;;;19.20;99.90;;;;;;4883696;29;20535;-88
2021/07/25 05:38:27;;;;;;;1999.90;999.90;;;19.20;99.90;;;;;;4883159;29;20419;-88
2021/07/25 05:40:53;;;;;;;1999.90;999.90;;;19.20;99.90;;;;;;4883618;29;20419;-88
2021/07/25 05:43:19;;;;;;;1999.90;999.90;;;19.20;99.90;;;;;;4883443;29;20463;-88
2021/07/25 05:45:44;;;;;;;1999.90;999.90;;;19.10;99.90;;;;;;4883217;29;20281;-88
2021/07/25 05:48:13;;;;;;;1999.90;999.90;;;19.10;99.90;;;;;;4882533;29;20462;-88
2021/07/25 05:50:39;;;;;;;1999.90;999.90;;;19.10;99.90;;;;;;4881869;29;20658;-88
2021/07/25 05:53:05;;;;;;;1999.90;999.90;;;19.10;99.90;;;;;;4883273;29;20411;-88
2021/07/25 05:55:33;;;;;;;1999.90;999.90;;;19.10;99.90;;;;;;4882266;29;20423;-88
2021/07/25 05:58:00;;;;;;;1999.90;999.90;;;19.10;99.90;;;;;;4897530;29;20787;-88
2021/07/25 06:00:26;;;;;;;1999.90;999.90;;;19.20;99.90;;;;;;4882052;29;20505;-88
2021/07/25 06:02:57;;;;;;;1999.90;999.90;;;19.20;99.90;;;;;;4883194;29;20458;-88
2021/07/25 06:05:27;;;;;;;1999.90;999.90;;;19.20;99.90;;;;;;4881622;29;20463;-88
2021/07/25 06:07:54;;;;;;;1999.90;999.90;;;19.20;99.90;;;;;;4882797;29;20391;-88
2021/07/25 06:10:21;;;;;;;1999.90;999.90;;;19.30;99.90;;;;;;4881948;29;20769;-88
2021/07/25 06:12:56;;;;;;;1999.90;999.90;;;19.30;99.90;;;;;;4881767;29;20423;-88
2021/07/25 06:15:22;;;;;;;1999.90;999.90;;;19.40;99.90;;;;;;4881524;29;20411;-89
2021/07/25 06:17:51;;;;;;;1999.90;999.90;;;19.40;99.90;;;;;;4882768;29;20417;-88
2021/07/25 06:20:17;;;;;;;1999.90;999.90;;;19.40;99.90;;;;;;4882517;29;20423;-89
2021/07/25 06:22:57;;;;;;;1999.90;999.90;;;19.40;99.90;;;;;;4882337;29;20483;-89
2021/07/25 06:25:33;;;;;;;1999.90;999.90;;;19.50;99.90;;;;;;4882438;29;20475;-89
2021/07/25 06:28:04;;;;;;;1999.90;999.90;;;19.50;99.90;;;;;;4882548;29;20404;-89
2021/07/25 06:30:30;;;;;;;1999.90;999.90;;;19.50;99.90;;;;;;4882733;29;20510;-89
2021/07/25 06:33:00;;;;;;;1999.90;999.90;;;19.50;99.90;;;;;;4882199;29;20503;-89
2021/07/25 06:35:32;;;;;;;1999.90;999.90;;;19.60;99.90;;;;;;4882569;29;20416;-90
2021/07/25 06:38:27;;;;;;;1999.90;999.90;;;19.60;99.90;;;;;;4881033;29;20793;-89
2021/07/25 06:40:54;;;;;;;1999.90;999.90;;;19.60;99.90;;;;;;4881767;29;20941;-89
2021/07/25 06:43:22;;;;;;;1999.90;999.90;;;19.70;99.90;;;;;;4882410;29;20455;-89
2021/07/25 06:45:49;;;;;;;1999.90;999.90;;;19.70;99.90;;;;;;4882122;29;20427;-89
2021/07/25 06:48:33;;;;;;;1999.90;999.90;;;19.80;99.90;;;;;;4881933;29;20403;-89
2021/07/25 06:51:02;;;;;;;1999.90;999.90;;;19.80;99.90;;;;;;4882386;29;20396;-89
2021/07/25 06:53:39;;;;;;;1999.90;999.90;;;19.90;99.90;;;;;;4880692;29;20432;-90
2021/07/25 06:56:06;;;;;;;1999.90;999.90;;;19.90;99.90;;;;;;4881857;29;20911;-89
2021/07/25 06:58:33;;;;;;;1999.90;999.90;;;19.90;99.90;;;;;;4880804;29;20423;-90
2021/07/25 07:01:00;;;;;;;1999.90;999.90;;;20.00;99.90;;;;;;4881936;29;20412;-89
2021/07/25 07:03:26;;;;;;;1999.90;999.90;;;20.10;99.90;;;;;;4881708;29;20510;-90
2021/07/25 07:05:55;;;;;;;1999.90;999.90;;;20.10;99.90;;;;;;4884833;29;20447;-89
2021/07/25 07:08:23;;;;;;;1999.90;999.90;;;20.00;99.90;;;;;;4883637;29;20413;-89
2021/07/25 07:10:54;;;;;;;1999.90;999.90;;;20.10;99.90;;;;;;4882403;29;20474;-89
2021/07/25 07:13:23;;;;;;;1999.90;999.90;;;20.10;99.90;;;;;;4881751;29;20415;-89
2021/07/25 07:15:56;;;;;;;1999.90;999.90;;;20.10;99.90;;;;;;4897673;29;20574;-89
2021/07/25 07:18:27;;;;;;;1999.90;999.90;;;20.10;99.90;;;;;;4882246;29;20401;-89
2021/07/25 07:20:53;;;;;;;1999.90;999.90;;;20.20;99.90;;;;;;4882186;29;20404;-89
2021/07/25 07:23:27;;;;;;;1999.90;999.90;;;20.30;99.90;;;;;;4881606;29;20466;-90
2021/07/25 07:25:54;;;;;;;1999.90;999.90;;;20.40;99.90;;;;;;4881825;29;20198;-89
2021/07/25 07:28:22;;;;;;;1999.90;999.90;;;20.40;99.90;;;;;;4881303;29;20416;-90
2021/07/25 07:30:51;;;;;;;1999.90;999.90;;;20.40;99.90;;;;;;4881573;29;20420;-89
2021/07/25 07:33:27;;;;;;;1999.90;999.90;;;20.40;99.90;;;;;;4880002;29;20480;-90
2021/07/25 07:35:53;;;;;;;1999.90;999.90;;;20.40;99.90;;;;;;4881250;29;20540;-90
2021/07/25 07:38:19;;;;;;;1999.90;999.90;;;20.50;99.90;;;;;;4881300;29;20415;-90
2021/07/25 07:40:46;;;;;;;1999.90;999.90;;;20.50;99.90;;;;;;4895474;29;20428;-90
2021/07/25 07:43:13;;;;;;;1999.90;999.90;;;20.60;99.90;;;;;;4881233;29;20457;-90
2021/07/25 07:45:42;;;;;;;1999.90;999.90;;;20.60;99.90;;;;;;4880338;29;20459;-91
2021/07/25 07:48:09;;;;;;;1999.90;999.90;;;20.70;99.90;;;;;;4895510;29;20416;-90
2021/07/25 07:50:35;;;;;;;1999.90;999.90;;;20.70;99.90;;;;;;4880971;29;20408;-90
2021/07/25 07:53:04;;;;;;;1999.90;999.90;;;20.80;99.90;;;;;;4879440;29;20912;-89
2021/07/25 07:55:32;;;;;;;1999.90;999.90;;;20.80;99.90;;;;;;4879489;29;20986;-90
2021/07/25 07:57:58;;;;;;;1999.90;999.90;;;20.90;99.90;;;;;;4881096;29;20936;-91
2021/07/25 08:00:26;;;;;;;1999.90;999.90;;;21.00;99.90;;;;;;4895378;29;20517;-90
2021/07/25 08:02:55;;;;;;;1999.90;999.90;;;21.00;99.90;;;;;;4880718;29;20566;-89
2021/07/25 08:05:21;;;;;;;1999.90;999.90;;;21.10;99.90;;;;;;4880634;29;20777;-89
2021/07/25 08:07:56;;;;;;;1999.90;999.90;;;21.10;99.90;;;;;;4880886;29;20422;-90
2021/07/25 08:10:22;;;;;;;1999.90;999.90;;;21.10;99.90;;;;;;4881011;29;20159;-89
2021/07/25 08:12:47;;;;;;;1999.90;999.90;;;21.20;99.90;;;;;;4879487;29;20791;-90
2021/07/25 08:15:19;;;;;;;1999.90;999.90;;;21.10;99.90;;;;;;4894973;29;20220;-89
2021/07/25 08:17:45;;;;;;;1999.90;999.90;;;21.20;99.90;;;;;;4880504;29;20201;-89
2021/07/25 08:20:11;;;;;;;1999.90;999.90;;;21.20;99.90;;;;;;4880321;29;20422;-89
2021/07/25 08:22:45;;;;;;;1999.90;999.90;;;21.30;99.90;;;;;;4880851;29;20205;-90
2021/07/25 08:25:11;;;;;;;1999.90;999.90;;;21.30;99.90;;;;;;4895062;29;20925;-88
2021/07/25 08:27:37;;;;;;;1999.90;999.90;;;21.40;99.90;;;;;;4880278;29;20442;-89
2021/07/25 08:30:04;;;;;;;1999.90;999.90;;;21.40;99.90;;;;;;4880674;29;20768;-89
2021/07/25 08:32:30;;;;;;;1999.90;999.90;;;21.40;99.90;;;;;;4880358;29;20180;-88
2021/07/25 08:34:56;;;;;;;1999.90;999.90;;;21.50;99.90;;;;;;4880356;29;20776;-89
2021/07/25 08:37:22;;;;;;;1999.90;999.90;;;21.60;99.90;;;;;;4878754;29;20257;-88
2021/07/25 08:39:54;;;;;;;1999.90;999.90;;;21.60;99.90;;;;;;4894398;29;20174;-89
2021/07/25 08:42:23;;;;;;;1999.90;999.90;;;21.70;99.90;;;;;;4879868;29;20197;-89
2021/07/25 08:44:56;;;;;;;1999.90;999.90;;;21.80;99.90;;;;;;4894439;29;20430;-90
2021/07/25 08:47:36;;;;;;;1999.90;999.90;;;21.90;99.90;;;;;;4879927;29;20427;-89
2021/07/25 08:50:24;;;;;;;1999.90;999.90;;;21.90;99.90;;;;;;4880854;29;20486;-89
2021/07/25 08:52:54;;;;;;;1999.90;999.90;;;22.00;99.90;;;;;;4879102;29;20425;-89
2021/07/25 08:55:21;;;;;;;1999.90;999.90;;;22.10;99.90;;;;;;4863556;29;20833;-89
2021/07/25 08:57:50;;;;;;;1999.90;999.90;;;22.10;99.90;;;;;;4880197;29;20861;-90
2021/07/25 09:00:18;;;;;;;1999.90;999.90;;;22.20;99.90;;;;;;4879221;29;20852;-90
2021/07/25 09:02:44;;;;;;;1999.90;999.90;;;22.30;99.90;;;;;;4894754;29;20459;-90
2021/07/25 09:05:11;;;;;;;1999.90;999.90;;;22.30;99.90;;;;;;4879936;29;20461;-89
2021/07/25 09:07:40;;;;;;;1999.90;999.90;;;22.30;99.90;;;;;;4878806;29;20436;-90
2021/07/25 09:10:21;;;;;;;1999.90;999.90;;;22.40;99.90;;;;;;4879025;29;20526;-89
2021/07/25 09:12:50;;;;;;;1999.90;999.90;;;22.50;99.90;;;;;;4894343;29;20510;-89
2021/07/25 09:15:32;;;;;;;1999.90;999.90;;;22.60;99.90;;;;;;4893966;29;20429;-88
2021/07/25 09:17:59;;;;;;;1999.90;999.90;;;22.80;99.90;;;;;;4879990;29;20391;-89
2021/07/25 09:20:36;;;;;;;1999.90;999.90;;;22.70;99.90;;;;;;4879977;29;20411;-90
2021/07/25 09:39:16;;;;;;;;;;;;;;;;;;;;;
2021/07/25 09:42:15;;;;;;;;;;;;;;;;;;;;;
2021/07/25 09:45:58;;;;;;;;;;;;;;;;;;;;;
2021/07/25 09:48:43;;;;;;;1999.90;999.90;;;23.50;99.90;;;;;;4859783;29;20420;-87
2021/07/25 09:51:49;;;;;;;1999.90;999.90;;;23.40;99.90;;;;;;4861523;29;20435;-87
2021/07/25 09:54:29;;;;;;;1999.90;999.90;;;23.40;99.90;;;;;;4861048;29;20875;-88
2021/07/25 09:58:02;;;;;;;1999.90;999.90;;;23.30;99.90;;;;;;4877897;23;20567;-88
2021/07/25 10:32:17;;;;;;;1999.90;999.90;;;25.20;99.90;;;;;;4886433;29;20392;-94
2021/07/25 10:36:04;;;;;;;1999.90;999.90;;;25.70;99.90;;;;;;4897272;29;20549;-94
2021/07/25 10:40:51;;;;;;;1999.90;999.90;;;26.30;99.90;;;;;;5462699;23;20493;-86
2021/07/25 10:43:23;;;;;;;1999.90;999.90;;;26.50;99.90;;;;;;4882551;29;20439;-85
2021/07/25 10:46:11;;;;;;;1999.90;999.90;;;26.50;99.10;;;;;;4881611;29;20976;-86
2021/07/25 10:48:37;;;;;;;1999.90;999.90;;;26.50;99.90;;;;;;4881930;29;20421;-86
2021/07/25 10:51:14;;;;;;;1999.90;999.90;;;26.50;95.80;;;;;;4880996;29;20414;-86
2021/07/25 10:53:40;;;;;;;1999.90;999.90;;;26.50;99.90;;;;;;4881421;29;20181;-86
2021/07/25 10:56:08;;;;;;;1999.90;999.90;;;26.60;99.90;;;;;;4883354;29;20427;-86
2021/07/25 10:58:53;;;;;;;1999.90;999.90;;;26.50;98.00;;;;;;4881358;29;20177;-87
2021/07/25 11:01:41;;;;;;;1999.90;999.90;;;26.10;97.30;;;;;;4882744;29;20422;-88
2021/07/25 11:04:07;;;;;;;1999.90;999.90;;;25.90;99.90;;;;;;4882115;29;20466;-87
2021/07/25 11:06:33;;;;;;;1999.90;999.90;;;25.90;98.20;;;;;;4880519;29;20430;-88
2021/07/25 11:08:58;;;;;;;1999.90;999.90;;;25.80;97.30;;;;;;4881845;29;20261;-88
2021/07/25 11:11:34;;;;;;;1999.90;999.90;;;25.90;99.90;;;;;;4880931;29;20648;-87
2021/07/25 11:14:04;;;;;;;1999.90;999.90;;;26.00;99.90;;;;;;4896487;29;20260;-88
2021/07/25 11:16:30;;;;;;;1999.90;999.90;;;26.00;97.00;;;;;;4881833;29;20441;-88
2021/07/25 11:19:19;;;;;;;1999.90;999.90;;;26.00;96.10;;;;;;4881763;29;20415;-88
2021/07/25 11:21:50;;;;;;;1999.90;999.90;;;25.80;94.30;;;;;;4880428;29;20174;-87
2021/07/25 11:24:30;;;;;;;1999.90;999.90;;;25.60;99.90;;;;;;4882419;29;20752;-86
2021/07/25 11:26:58;;;;;;;1999.90;999.90;;;25.60;99.90;;;;;;4881265;29;20431;-86
2021/07/25 11:29:33;;;;;;;1999.90;999.90;;;25.50;99.90;;;;;;4880449;29;20413;-88
2021/07/25 11:32:00;;;;;;;1999.90;999.90;;;25.40;99.90;;;;;;4895885;29;20480;-88
2021/07/25 11:34:35;;;;;;;1999.90;999.90;;;25.30;99.90;;;;;;4895943;29;20886;-87
2021/07/25 11:37:03;;;;;;;1999.90;999.90;;;25.40;98.50;;;;;;4881588;29;20507;-86
2021/07/25 11:39:30;;;;;;;1999.90;999.90;;;25.40;99.90;;;;;;4881700;29;20745;-87
2021/07/25 11:41:56;;;;;;;1999.90;999.90;;;25.60;99.90;;;;;;4880547;29;21021;-88
2021/07/25 11:44:27;;;;;;;1999.90;999.90;;;26.20;99.90;;;;;;4879964;29;20966;-88
2021/07/25 11:46:54;;;;;;;1999.90;999.90;;;26.60;93.10;;;;;;4895471;29;20551;-87
2021/07/25 11:49:25;;;;;;;1999.90;999.90;;;26.90;92.40;;;;;;4881670;29;20416;-88
2021/07/25 11:52:01;;;;;;;1999.90;999.90;;;26.90;75.10;;;;;;4880806;29;20406;-85
2021/07/25 11:54:29;;;;;;;1999.90;999.90;;;27.10;85.60;;;;;;4880994;29;20403;-87
2021/07/25 11:56:57;;;;;;;1999.90;999.90;;;27.50;73.50;;;;;;4896224;29;20780;-85
2021/07/25 11:59:26;;;;;;;1999.90;999.90;;;28.00;82.40;;;;;;4881184;29;20411;-85
2021/07/25 12:01:52;;;;;;;1999.90;999.90;;;28.20;71.50;;;;;;4880072;29;20506;-86
2021/07/25 12:04:21;;;;;;;1999.90;999.90;;;28.40;62.10;;;;;;4881480;29;20470;-85
2021/07/25 12:06:56;;;;;;;1999.90;999.90;;;28.60;56.20;;;;;;4897479;29;20446;-86
2021/07/25 12:09:23;;;;;;;1999.90;999.90;;;28.80;45.30;;;;;;4882199;29;20384;-85
2021/07/25 12:11:49;;;;;;;1999.90;999.90;;;29.10;18.20;;;;;;4884302;29;20919;-86
2021/07/25 12:14:15;;;;;;;1999.90;999.90;;;29.20;16.40;;;;;;4884699;29;20410;-85
2021/07/25 12:16:49;;;;;;;1999.90;999.90;;;29.20;18.80;;;;;;4884562;29;20190;-85
2021/07/25 12:19:19;;;;;;;1999.90;999.90;;;29.10;21.10;;;;;;4883806;29;20181;-86
2021/07/25 12:21:47;;;;;;;1999.90;999.90;;;29.10;19.30;;;;;;4884103;29;20930;-86
2021/07/25 12:24:33;;;;;;;1999.90;999.90;;;29.10;25.00;;;;;;4881228;29;20454;-86
2021/07/25 12:27:02;;;;;;;1999.90;999.90;;;29.10;19.30;;;;;;4880296;29;20865;-86
2021/07/25 12:29:41;;;;;;;1999.90;999.90;;;28.90;14.10;;;;;;4883253;29;20970;-85
2021/07/25 12:32:30;;;;;;;1999.90;999.90;;;29.00;18.70;;;;;;4881940;29;20391;-86
2021/07/25 12:35:14;;;;;;;1999.90;999.90;;;29.10;13.60;;;;;;4879777;29;20441;-86
2021/07/25 12:37:50;;;;;;;1999.90;999.90;;;29.00;8.20;;;;;;4880695;29;20487;-85
2021/07/25 12:54:04;;;;;;;1999.90;999.90;;;29.00;4.40;;;;;;4866383;29;20921;-87
2021/07/25 13:05:59;;;;;;;;;;;;;;;;;;;;;
2021/07/25 13:31:36;;;;;;;1999.90;999.90;;;28.70;3.60;;;;;;4863466;29;20464;-86
2021/07/25 13:34:01;;;;;;;1999.90;999.90;;;28.80;5.10;;;;;;4862707;29;20486;-85
2021/07/25 13:36:27;;;;;;;1999.90;999.90;;;28.50;1.50;;;;;;4870769;29;20517;-86
2021/07/25 13:38:53;;;;;;;1999.90;999.90;;;28.20;1.00;;;;;;4869357;29;20554;-86
2021/07/25 13:41:20;;;;;;;1999.90;999.90;;;28.00;1.00;;;;;;4865839;29;20176;-86
2021/07/25 13:43:50;;;;;;;1999.90;999.90;;;27.90;2.20;;;;;;4868806;29;20967;-87
2021/07/25 13:46:20;;;;;;;1999.90;999.90;;;27.90;4.10;;;;;;4870576;29;20496;-86
2021/07/25 13:48:47;;;;;;;1999.90;999.90;;;28.10;9.70;;;;;;4868611;29;20897;-85
2021/07/25 13:51:16;;;;;;;1999.90;999.90;;;28.70;10.20;;;;;;4869605;29;20444;-86
2021/07/25 13:53:42;;;;;;;1999.90;999.90;;;29.10;4.40;;;;;;4871012;29;20431;-85
2021/07/25 13:56:10;;;;;;;1999.90;999.90;;;29.40;1.00;;;;;;4869706;29;20472;-85